sensor_id;sensor_type;location;lat;lon;timestamp;pressure;altitude;pressure_sealevel;temperature;humidity
82395;BME280;72031;51.786;4.662;2024-01-10T00:00:15;103286.75;;;-2.89;51.57
82395;BME280;72031;51.786;4.662;2024-01-10T00:02:56;103280.56;;;-2.94;51.14
82395;BME280;72031;51.786;4.662;2024-01-10T00:05:21;103274.56;;;-2.90;50.93
82395;BME280;72031;51.786;4.662;2024-01-10T00:07:47;103260.56;;;-2.92;51.14
82395;BME280;72031;51.786;4.662;2024-01-10T00:10:13;103268.28;;;-2.97;51.49
82395;BME280;72031;51.786;4.662;2024-01-10T00:12:38;103270.88;;;-2.98;51.92
82395;BME280;72031;51.786;4.662;2024-01-10T00:15:05;103267.38;;;-2.99;51.65
82395;BME280;72031;51.786;4.662;2024-01-10T00:17:33;103269.16;;;-2.96;51.55
82395;BME280;72031;51.786;4.662;2024-01-10T00:19:59;103267.38;;;-2.99;51.72
82395;BME280;72031;51.786;4.662;2024-01-10T00:22:25;103266.53;;;-2.98;51.63
82395;BME280;72031;51.786;4.662;2024-01-10T00:24:52;103257.81;;;-2.98;51.72
82395;BME280;72031;51.786;4.662;2024-01-10T00:27:19;103260.47;;;-2.95;52.13
82395;BME280;72031;51.786;4.662;2024-01-10T00:29:44;103251.81;;;-2.94;52.22
82395;BME280;72031;51.786;4.662;2024-01-10T00:32:13;103256.00;;;-3.01;52.11
82395;BME280;72031;51.786;4.662;2024-01-10T00:34:39;103255.91;;;-3.04;52.55
82395;BME280;72031;51.786;4.662;2024-01-10T00:37:05;103249.78;;;-3.06;52.79
82395;BME280;72031;51.786;4.662;2024-01-10T00:39:31;103248.84;;;-3.08;52.93
82395;BME280;72031;51.786;4.662;2024-01-10T00:41:56;103253.31;;;-3.04;52.94
82395;BME280;72031;51.786;4.662;2024-01-10T00:44:23;103254.31;;;-2.99;53.13
82395;BME280;72031;51.786;4.662;2024-01-10T00:46:52;103254.34;;;-2.97;52.89
82395;BME280;72031;51.786;4.662;2024-01-10T00:49:18;103252.59;;;-2.98;52.72
82395;BME280;72031;51.786;4.662;2024-01-10T00:51:44;103246.44;;;-3.00;53.38
82395;BME280;72031;51.786;4.662;2024-01-10T00:54:11;103243.72;;;-3.03;52.82
82395;BME280;72031;51.786;4.662;2024-01-10T00:56:36;103244.63;;;-3.03;53.18
82395;BME280;72031;51.786;4.662;2024-01-10T00:59:02;103241.19;;;-3.02;53.76
82395;BME280;72031;51.786;4.662;2024-01-10T01:01:27;103241.03;;;-3.08;53.14
82395;BME280;72031;51.786;4.662;2024-01-10T01:03:54;103240.97;;;-3.11;53.29
82395;BME280;72031;51.786;4.662;2024-01-10T01:06:20;103239.16;;;-3.12;54.06
82395;BME280;72031;51.786;4.662;2024-01-10T01:08:46;103227.16;;;-3.05;53.55
82395;BME280;72031;51.786;4.662;2024-01-10T01:11:11;103234.16;;;-3.03;53.84
82395;BME280;72031;51.786;4.662;2024-01-10T01:13:39;103231.44;;;-3.09;53.71
82395;BME280;72031;51.786;4.662;2024-01-10T01:16:07;103226.97;;;-3.13;54.13
82395;BME280;72031;51.786;4.662;2024-01-10T01:18:34;103228.66;;;-3.15;54.93
82395;BME280;72031;51.786;4.662;2024-01-10T01:21:03;103226.84;;;-3.18;55.34
82395;BME280;72031;51.786;4.662;2024-01-10T01:23:29;103225.97;;;-3.18;54.63
82395;BME280;72031;51.786;4.662;2024-01-10T01:25:54;103224.31;;;-3.15;55.18
82395;BME280;72031;51.786;4.662;2024-01-10T01:28:20;103229.56;;;-3.13;54.43
82395;BME280;72031;51.786;4.662;2024-01-10T01:30:48;103224.97;;;-3.23;55.18
82395;BME280;72031;51.786;4.662;2024-01-10T01:33:13;103224.13;;;-3.22;55.30
82395;BME280;72031;51.786;4.662;2024-01-10T01:35:40;103225.78;;;-3.26;55.66
82395;BME280;72031;51.786;4.662;2024-01-10T01:38:06;103225.91;;;-3.20;54.98
82395;BME280;72031;51.786;4.662;2024-01-10T01:40:32;103216.28;;;-3.22;55.91
82395;BME280;72031;51.786;4.662;2024-01-10T01:42:57;103217.25;;;-3.19;55.47
82395;BME280;72031;51.786;4.662;2024-01-10T01:45:23;103214.28;;;-3.32;55.66
82395;BME280;72031;51.786;4.662;2024-01-10T01:47:50;103223.94;;;-3.28;55.58
82395;BME280;72031;51.786;4.662;2024-01-10T01:50:16;103211.66;;;-3.34;56.13
82395;BME280;72031;51.786;4.662;2024-01-10T01:52:43;103220.44;;;-3.30;55.92
82395;BME280;72031;51.786;4.662;2024-01-10T01:55:10;103217.81;;;-3.30;56.52
82395;BME280;72031;51.786;4.662;2024-01-10T01:57:39;103215.09;;;-3.35;56.79
82395;BME280;72031;51.786;4.662;2024-01-10T02:00:10;103218.56;;;-3.36;56.30
82395;BME280;72031;51.786;4.662;2024-01-10T02:02:37;103214.22;;;-3.35;56.50
82395;BME280;72031;51.786;4.662;2024-01-10T02:05:25;103212.44;;;-3.36;56.88
82395;BME280;72031;51.786;4.662;2024-01-10T02:07:54;103219.31;;;-3.40;57.05
82395;BME280;72031;51.786;4.662;2024-01-10T02:10:42;103216.94;;;-3.31;56.62
82395;BME280;72031;51.786;4.662;2024-01-10T02:13:18;103216.75;;;-3.37;56.61
82395;BME280;72031;51.786;4.662;2024-01-10T02:15:45;103214.09;;;-3.40;57.11
82395;BME280;72031;51.786;4.662;2024-01-10T02:18:11;103215.09;;;-3.35;57.08
82395;BME280;72031;51.786;4.662;2024-01-10T02:20:43;103214.34;;;-3.29;57.08
82395;BME280;72031;51.786;4.662;2024-01-10T02:23:17;103209.13;;;-3.29;57.17
82395;BME280;72031;51.786;4.662;2024-01-10T02:25:46;103210.84;;;-3.31;57.17
82395;BME280;72031;51.786;4.662;2024-01-10T02:28:12;103212.34;;;-3.40;58.15
82395;BME280;72031;51.786;4.662;2024-01-10T02:30:38;103205.31;;;-3.44;57.71
82395;BME280;72031;51.786;4.662;2024-01-10T02:33:04;103198.22;;;-3.48;58.01
82395;BME280;72031;51.786;4.662;2024-01-10T02:35:31;103198.22;;;-3.48;58.37
82395;BME280;72031;51.786;4.662;2024-01-10T02:37:59;103188.78;;;-3.44;58.76
82395;BME280;72031;51.786;4.662;2024-01-10T02:40:26;103191.41;;;-3.43;58.04
82395;BME280;72031;51.786;4.662;2024-01-10T02:42:53;103194.88;;;-3.44;58.18
82395;BME280;72031;51.786;4.662;2024-01-10T02:45:22;103185.22;;;-3.46;58.91
82395;BME280;72031;51.786;4.662;2024-01-10T02:47:48;103194.06;;;-3.41;58.63
82395;BME280;72031;51.786;4.662;2024-01-10T02:50:14;103196.53;;;-3.46;58.47
82395;BME280;72031;51.786;4.662;2024-01-10T02:52:39;103193.94;;;-3.46;58.76
82395;BME280;72031;51.786;4.662;2024-01-10T02:55:06;103191.41;;;-3.43;58.69
82395;BME280;72031;51.786;4.662;2024-01-10T02:57:32;103190.53;;;-3.43;58.71
82395;BME280;72031;51.786;4.662;2024-01-10T02:59:58;103188.81;;;-3.43;59.17
82395;BME280;72031;51.786;4.662;2024-01-10T03:02:34;103184.44;;;-3.44;58.95
82395;BME280;72031;51.786;4.662;2024-01-10T03:05:00;103184.44;;;-3.44;58.49
82395;BME280;72031;51.786;4.662;2024-01-10T03:10:13;103181.84;;;-3.42;59.71
82395;BME280;72031;51.786;4.662;2024-01-10T03:12:40;103184.50;;;-3.41;59.21
82395;BME280;72031;51.786;4.662;2024-01-10T03:15:06;103176.59;;;-3.44;59.16
82395;BME280;72031;51.786;4.662;2024-01-10T03:17:32;103173.19;;;-3.41;58.99
82395;BME280;72031;51.786;4.662;2024-01-10T03:19:59;103171.31;;;-3.45;59.04
82395;BME280;72031;51.786;4.662;2024-01-10T03:22:26;103170.38;;;-3.49;59.41
82395;BME280;72031;51.786;4.662;2024-01-10T03:24:51;103180.75;;;-3.52;59.77
82395;BME280;72031;51.786;4.662;2024-01-10T03:27:17;103168.56;;;-3.51;59.24
82395;BME280;72031;51.786;4.662;2024-01-10T03:29:43;103173.81;;;-3.50;59.54
82395;BME280;72031;51.786;4.662;2024-01-10T03:32:08;103171.91;;;-3.57;59.43
82395;BME280;72031;51.786;4.662;2024-01-10T03:34:34;103172.75;;;-3.58;59.38
82395;BME280;72031;51.786;4.662;2024-01-10T03:37:00;103163.31;;;-3.53;59.47
82395;BME280;72031;51.786;4.662;2024-01-10T03:39:27;103165.94;;;-3.53;59.75
82395;BME280;72031;51.786;4.662;2024-01-10T03:41:56;103154.44;;;-3.59;60.15
82395;BME280;72031;51.786;4.662;2024-01-10T03:44:27;103145.75;;;-3.60;60.37
82395;BME280;72031;51.786;4.662;2024-01-10T03:46:53;103151.66;;;-3.65;59.77
82395;BME280;72031;51.786;4.662;2024-01-10T03:49:18;103142.03;;;-3.68;60.34
82395;BME280;72031;51.786;4.662;2024-01-10T03:51:48;103142.91;;;-3.69;60.47
82395;BME280;72031;51.786;4.662;2024-01-10T03:54:14;103141.06;;;-3.72;60.68
82395;BME280;72031;51.786;4.662;2024-01-10T03:56:40;103141.06;;;-3.72;60.66
82395;BME280;72031;51.786;4.662;2024-01-10T03:59:06;103142.03;;;-3.68;60.43
82395;BME280;72031;51.786;4.662;2024-01-10T04:01:35;103133.44;;;-3.64;60.86
82395;BME280;72031;51.786;4.662;2024-01-10T04:04:01;103136.72;;;-3.71;60.55
82395;BME280;72031;51.786;4.662;2024-01-10T04:06:27;103134.19;;;-3.70;61.01
82395;BME280;72031;51.786;4.662;2024-01-10T04:09:02;103129.09;;;-3.63;60.76
82395;BME280;72031;51.786;4.662;2024-01-10T04:11:28;103129.09;;;-3.63;59.97
82395;BME280;72031;51.786;4.662;2024-01-10T04:13:54;103134.97;;;-3.72;60.67
82395;BME280;72031;51.786;4.662;2024-01-10T04:16:25;103133.97;;;-3.77;61.34
82395;BME280;72031;51.786;4.662;2024-01-10T04:18:51;103131.41;;;-3.76;61.16
82395;BME280;72031;51.786;4.662;2024-01-10T04:21:17;103121.88;;;-3.74;61.12
82395;BME280;72031;51.786;4.662;2024-01-10T04:23:43;103135.72;;;-3.78;60.82
82395;BME280;72031;51.786;4.662;2024-01-10T04:26:12;103137.50;;;-3.75;60.89
82395;BME280;72031;51.786;4.662;2024-01-10T04:28:42;103141.75;;;-3.79;61.51
82395;BME280;72031;51.786;4.662;2024-01-10T04:31:08;103134.72;;;-3.81;60.87
82395;BME280;72031;51.786;4.662;2024-01-10T04:33:42;103131.22;;;-3.83;61.60
82395;BME280;72031;51.786;4.662;2024-01-10T04:36:08;103125.09;;;-3.84;61.83
82395;BME280;72031;51.786;4.662;2024-01-10T04:38:44;103134.66;;;-3.84;61.67
82395;BME280;72031;51.786;4.662;2024-01-10T04:41:11;103124.25;;;-3.83;61.38
82395;BME280;72031;51.786;4.662;2024-01-10T04:43:39;103123.41;;;-3.82;62.07
82395;BME280;72031;51.786;4.662;2024-01-10T04:46:14;103119.19;;;-3.78;61.85
82395;BME280;72031;51.786;4.662;2024-01-10T04:48:39;103117.38;;;-3.79;62.08
82395;BME280;72031;51.786;4.662;2024-01-10T04:51:09;103119.84;;;-3.85;62.44
82395;BME280;72031;51.786;4.662;2024-01-10T04:53:34;103119.00;;;-3.84;61.88
82395;BME280;72031;51.786;4.662;2024-01-10T04:56:03;103119.78;;;-3.87;62.25
82395;BME280;72031;51.786;4.662;2024-01-10T04:58:31;103117.16;;;-3.88;62.56
82395;BME280;72031;51.786;4.662;2024-01-10T05:00:58;103121.28;;;-3.97;62.49
82395;BME280;72031;51.786;4.662;2024-01-10T05:03:24;103123.25;;;-3.88;62.56
82395;BME280;72031;51.786;4.662;2024-01-10T05:05:50;103123.09;;;-3.94;62.60
82395;BME280;72031;51.786;4.662;2024-01-10T05:08:15;103116.88;;;-3.99;63.21
82395;BME280;72031;51.786;4.662;2024-01-10T05:10:41;103114.44;;;-3.93;62.66
82395;BME280;72031;51.786;4.662;2024-01-10T05:13:06;103116.19;;;-3.92;63.17
82395;BME280;72031;51.786;4.662;2024-01-10T05:15:43;103118.78;;;-3.93;63.48
82395;BME280;72031;51.786;4.662;2024-01-10T05:18:09;103115.16;;;-3.99;63.58
82395;BME280;72031;51.786;4.662;2024-01-10T05:20:35;103112.59;;;-3.96;63.48
82395;BME280;72031;51.786;4.662;2024-01-10T05:23:02;103118.75;;;-3.95;63.56
82395;BME280;72031;51.786;4.662;2024-01-10T05:25:31;103106.50;;;-3.96;63.64
82395;BME280;72031;51.786;4.662;2024-01-10T05:27:58;103119.44;;;-4.01;63.84
82395;BME280;72031;51.786;4.662;2024-01-10T05:30:24;103112.50;;;-4.00;63.36
82395;BME280;72031;51.786;4.662;2024-01-10T05:32:49;103113.38;;;-4.00;63.76
82395;BME280;72031;51.786;4.662;2024-01-10T05:35:15;103115.84;;;-4.04;64.12
82395;BME280;72031;51.786;4.662;2024-01-10T05:37:40;103109.50;;;-4.14;64.21
82395;BME280;72031;51.786;4.662;2024-01-10T05:40:07;103110.34;;;-4.15;64.59
82395;BME280;72031;51.786;4.662;2024-01-10T05:42:33;103113.13;;;-4.09;64.06
82395;BME280;72031;51.786;4.662;2024-01-10T05:45:00;103121.03;;;-4.06;63.58
82395;BME280;72031;51.786;4.662;2024-01-10T05:47:27;103119.28;;;-4.07;63.84
82395;BME280;72031;51.786;4.662;2024-01-10T05:49:56;103127.16;;;-4.04;64.53
82395;BME280;72031;51.786;4.662;2024-01-10T05:52:22;103118.53;;;-4.03;64.08
82395;BME280;72031;51.786;4.662;2024-01-10T05:54:48;103122.13;;;-3.98;63.42
82395;BME280;72031;51.786;4.662;2024-01-10T05:57:19;103120.50;;;-3.94;63.91
82395;BME280;72031;51.786;4.662;2024-01-10T05:59:48;103110.75;;;-4.01;63.62
82395;BME280;72031;51.786;4.662;2024-01-10T06:02:13;103119.41;;;-4.02;63.66
82395;BME280;72031;51.786;4.662;2024-01-10T06:04:41;103122.69;;;-4.09;63.80
82395;BME280;72031;51.786;4.662;2024-01-10T06:07:07;103115.81;;;-4.06;63.95
82395;BME280;72031;51.786;4.662;2024-01-10T06:09:36;103110.63;;;-4.04;64.04
82395;BME280;72031;51.786;4.662;2024-01-10T06:12:02;103115.84;;;-4.04;64.28
82395;BME280;72031;51.786;4.662;2024-01-10T06:14:33;103110.72;;;-4.03;63.85
82395;BME280;72031;51.786;4.662;2024-01-10T06:17:00;103113.22;;;-4.06;64.49
82395;BME280;72031;51.786;4.662;2024-01-10T06:19:27;103111.53;;;-4.04;64.25
82395;BME280;72031;51.786;4.662;2024-01-10T06:21:53;103109.06;;;-3.99;64.39
82395;BME280;72031;51.786;4.662;2024-01-10T06:24:30;103115.91;;;-4.03;64.31
82395;BME280;72031;51.786;4.662;2024-01-10T06:26:56;103118.53;;;-4.03;64.18
82395;BME280;72031;51.786;4.662;2024-01-10T06:29:21;103111.47;;;-4.05;64.33
82395;BME280;72031;51.786;4.662;2024-01-10T06:31:50;103119.19;;;-4.10;64.71
82395;BME280;72031;51.786;4.662;2024-01-10T06:34:16;103122.69;;;-4.09;64.04
82395;BME280;72031;51.786;4.662;2024-01-10T06:36:47;103115.91;;;-4.03;64.62
82395;BME280;72031;51.786;4.662;2024-01-10T06:39:14;103113.19;;;-4.07;64.20
82395;BME280;72031;51.786;4.662;2024-01-10T06:41:41;103111.44;;;-4.07;64.17
82395;BME280;72031;51.786;4.662;2024-01-10T06:44:07;103115.84;;;-4.04;64.02
82395;BME280;72031;51.786;4.662;2024-01-10T06:46:33;103119.28;;;-4.07;64.47
82395;BME280;72031;51.786;4.662;2024-01-10T06:48:59;103117.34;;;-4.14;64.37
82395;BME280;72031;51.786;4.662;2024-01-10T06:51:25;103118.94;;;-4.19;64.67
82395;BME280;72031;51.786;4.662;2024-01-10T06:53:54;103111.97;;;-4.20;64.74
82395;BME280;72031;51.786;4.662;2024-01-10T06:56:29;103118.00;;;-4.21;64.34
82395;BME280;72031;51.786;4.662;2024-01-10T06:58:56;103117.00;;;-4.26;65.16
82395;BME280;72031;51.786;4.662;2024-01-10T07:01:22;103118.69;;;-4.28;64.49
82395;BME280;72031;51.786;4.662;2024-01-10T07:03:48;103117.94;;;-4.24;64.74
82395;BME280;72031;51.786;4.662;2024-01-10T07:06:14;103117.13;;;-4.21;64.69
82395;BME280;72031;51.786;4.662;2024-01-10T07:08:43;103117.13;;;-4.21;64.72
82395;BME280;72031;51.786;4.662;2024-01-10T07:11:12;103108.41;;;-4.22;64.68
82395;BME280;72031;51.786;4.662;2024-01-10T07:13:38;103111.00;;;-4.23;65.12
82395;BME280;72031;51.786;4.662;2024-01-10T07:16:05;103109.38;;;-4.20;64.69
82395;BME280;72031;51.786;4.662;2024-01-10T07:18:31;103115.38;;;-4.21;64.36
82395;BME280;72031;51.786;4.662;2024-01-10T07:20:56;103117.19;;;-4.20;64.88
82395;BME280;72031;51.786;4.662;2024-01-10T07:23:23;103117.25;;;-4.17;65.19
82395;BME280;72031;51.786;4.662;2024-01-10T07:25:49;103117.25;;;-4.17;64.45
82395;BME280;72031;51.786;4.662;2024-01-10T07:28:15;103121.56;;;-4.19;64.93
82395;BME280;72031;51.786;4.662;2024-01-10T07:30:41;103111.97;;;-4.20;64.61
82395;BME280;72031;51.786;4.662;2024-01-10T07:33:07;103115.31;;;-4.24;64.77
82395;BME280;72031;51.786;4.662;2024-01-10T07:35:34;103123.22;;;-4.21;64.49
82395;BME280;72031;51.786;4.662;2024-01-10T07:38:00;103123.09;;;-4.26;65.31
82395;BME280;72031;51.786;4.662;2024-01-10T07:40:25;103129.41;;;-4.17;65.08
82395;BME280;72031;51.786;4.662;2024-01-10T07:42:52;103129.38;;;-4.19;65.23
82395;BME280;72031;51.786;4.662;2024-01-10T07:45:18;103133.81;;;-4.15;64.67
82395;BME280;72031;51.786;4.662;2024-01-10T07:47:44;103130.41;;;-4.12;64.75
82395;BME280;72031;51.786;4.662;2024-01-10T07:50:18;103124.31;;;-4.13;64.29
82395;BME280;72031;51.786;4.662;2024-01-10T07:52:45;103127.69;;;-4.17;64.01
82395;BME280;72031;51.786;4.662;2024-01-10T07:55:12;103126.00;;;-4.15;64.96
82395;BME280;72031;51.786;4.662;2024-01-10T07:57:39;103122.41;;;-4.20;64.80
82395;BME280;72031;51.786;4.662;2024-01-10T08:00:06;103126.63;;;-4.23;64.70
82395;BME280;72031;51.786;4.662;2024-01-10T08:02:37;103126.56;;;-4.27;64.62
82395;BME280;72031;51.786;4.662;2024-01-10T08:05:04;103120.50;;;-4.26;64.56
82395;BME280;72031;51.786;4.662;2024-01-10T08:07:37;103118.09;;;-4.18;65.34
82395;BME280;72031;51.786;4.662;2024-01-10T08:10:07;103117.25;;;-4.17;64.90
82395;BME280;72031;51.786;4.662;2024-01-10T08:12:39;103107.72;;;-4.16;65.19
82395;BME280;72031;51.786;4.662;2024-01-10T08:15:07;103113.88;;;-4.13;64.39
82395;BME280;72031;51.786;4.662;2024-01-10T08:17:34;103108.03;;;-4.04;64.75
82395;BME280;72031;51.786;4.662;2024-01-10T08:20:00;103105.19;;;-4.13;64.75
82395;BME280;72031;51.786;4.662;2024-01-10T08:22:28;103109.69;;;-4.08;63.90
82395;BME280;72031;51.786;4.662;2024-01-10T08:24:54;103103.66;;;-4.05;64.46
82395;BME280;72031;51.786;4.662;2024-01-10T08:27:21;103103.59;;;-4.08;63.85
82395;BME280;72031;51.786;4.662;2024-01-10T08:29:47;103102.34;;;-4.21;64.63
82395;BME280;72031;51.786;4.662;2024-01-10T08:32:12;103104.41;;;-4.11;64.52
82395;BME280;72031;51.786;4.662;2024-01-10T08:34:38;103108.00;;;-4.06;64.24
82395;BME280;72031;51.786;4.662;2024-01-10T08:37:03;103109.75;;;-4.05;63.81
82395;BME280;72031;51.786;4.662;2024-01-10T08:39:29;103107.47;;;-3.94;63.67
82395;BME280;72031;51.786;4.662;2024-01-10T08:41:57;103106.72;;;-3.88;63.83
82395;BME280;72031;51.786;4.662;2024-01-10T08:44:23;103102.38;;;-3.88;62.82
82395;BME280;72031;51.786;4.662;2024-01-10T08:46:48;103111.88;;;-3.91;63.09
82395;BME280;72031;51.786;4.662;2024-01-10T08:49:16;103111.91;;;-3.90;63.08
82395;BME280;72031;51.786;4.662;2024-01-10T08:51:42;103106.69;;;-3.90;63.28
82395;BME280;72031;51.786;4.662;2024-01-10T08:54:09;103109.31;;;-3.88;63.31
82395;BME280;72031;51.786;4.662;2024-01-10T08:56:34;103112.91;;;-3.85;63.86
82395;BME280;72031;51.786;4.662;2024-01-10T08:59:00;103116.81;;;-3.69;63.41
82395;BME280;72031;51.786;4.662;2024-01-10T09:01:26;103114.47;;;-3.58;63.37
82395;BME280;72031;51.786;4.662;2024-01-10T09:03:51;103109.59;;;-3.45;62.38
82395;BME280;72031;51.786;4.662;2024-01-10T09:06:17;103114.88;;;-3.42;62.55
82395;BME280;72031;51.786;4.662;2024-01-10T09:08:42;103116.63;;;-3.41;63.06
82395;BME280;72031;51.786;4.662;2024-01-10T09:11:08;103118.56;;;-3.33;62.89
82395;BME280;72031;51.786;4.662;2024-01-10T09:13:34;103128.19;;;-3.31;61.68
82395;BME280;72031;51.786;4.662;2024-01-10T09:16:00;103124.06;;;-3.21;61.62
82395;BME280;72031;51.786;4.662;2024-01-10T09:18:25;103117.91;;;-3.23;61.19
82395;BME280;72031;51.786;4.662;2024-01-10T09:20:50;103126.88;;;-3.12;60.79
82395;BME280;72031;51.786;4.662;2024-01-10T09:23:16;103111.31;;;-3.09;60.35
82395;BME280;72031;51.786;4.662;2024-01-10T09:25:41;103124.63;;;-2.97;60.48
82395;BME280;72031;51.786;4.662;2024-01-10T09:28:07;103121.25;;;-2.93;59.70
82395;BME280;72031;51.786;4.662;2024-01-10T09:30:33;103121.25;;;-2.93;60.36
82395;BME280;72031;51.786;4.662;2024-01-10T09:32:59;103123.22;;;-2.83;59.32
82395;BME280;72031;51.786;4.662;2024-01-10T09:35:26;103122.34;;;-2.83;59.89
82395;BME280;72031;51.786;4.662;2024-01-10T09:37:51;103120.78;;;-2.75;58.98
82395;BME280;72031;51.786;4.662;2024-01-10T09:40:17;103119.13;;;-2.70;59.28
82395;BME280;72031;51.786;4.662;2024-01-10T09:42:44;103130.59;;;-2.63;59.50
82395;BME280;72031;51.786;4.662;2024-01-10T09:45:10;103135.25;;;-2.50;58.19
82395;BME280;72031;51.786;4.662;2024-01-10T09:47:39;103125.69;;;-2.49;58.61
82395;BME280;72031;51.786;4.662;2024-01-10T09:50:09;103130.38;;;-2.33;58.19
82395;BME280;72031;51.786;4.662;2024-01-10T09:52:43;103130.56;;;-2.22;57.53
82395;BME280;72031;51.786;4.662;2024-01-10T09:55:17;103129.97;;;-2.09;57.91
82395;BME280;72031;51.786;4.662;2024-01-10T09:57:43;103123.97;;;-2.04;57.06
82395;BME280;72031;51.786;4.662;2024-01-10T10:00:11;103124.03;;;-2.01;57.01
82395;BME280;72031;51.786;4.662;2024-01-10T10:02:38;103117.72;;;-2.10;57.36
82395;BME280;72031;51.786;4.662;2024-01-10T10:05:15;103127.59;;;-1.97;57.09
82395;BME280;72031;51.786;4.662;2024-01-10T10:07:51;103119.78;;;-1.94;56.68
82395;BME280;72031;51.786;4.662;2024-01-10T10:10:17;103120.03;;;-1.80;57.26
82395;BME280;72031;51.786;4.662;2024-01-10T10:12:47;103127.06;;;-1.78;56.49
82395;BME280;72031;51.786;4.662;2024-01-10T10:15:15;103124.69;;;-1.64;56.23
82395;BME280;72031;51.786;4.662;2024-01-10T10:17:43;103123.84;;;-1.61;56.63
82395;BME280;72031;51.786;4.662;2024-01-10T10:20:20;103120.38;;;-1.60;56.26
82395;BME280;72031;51.786;4.662;2024-01-10T10:23:02;103120.50;;;-1.54;55.88
82395;BME280;72031;51.786;4.662;2024-01-10T10:25:36;103124.88;;;-1.52;56.52
82395;BME280;72031;51.786;4.662;2024-01-10T10:28:04;103124.16;;;-1.43;56.33
82395;BME280;72031;51.786;4.662;2024-01-10T10:30:33;103113.81;;;-1.35;54.57
82395;BME280;72031;51.786;4.662;2024-01-10T10:32:59;103113.91;;;-1.31;54.37
82395;BME280;72031;51.786;4.662;2024-01-10T10:35:25;103114.69;;;-1.35;53.95
82395;BME280;72031;51.786;4.662;2024-01-10T10:37:52;103105.09;;;-1.36;54.37
82395;BME280;72031;51.786;4.662;2024-01-10T10:40:19;103102.47;;;-1.36;54.28
82395;BME280;72031;51.786;4.662;2024-01-10T10:42:46;103098.28;;;-1.25;53.89
82395;BME280;72031;51.786;4.662;2024-01-10T10:45:17;103099.34;;;-1.12;53.73
82395;BME280;72031;51.786;4.662;2024-01-10T10:47:45;103091.47;;;-1.14;54.31
82395;BME280;72031;51.786;4.662;2024-01-10T10:50:22;103104.53;;;-1.17;53.48
82395;BME280;72031;51.786;4.662;2024-01-10T10:52:50;103090.56;;;-1.17;53.05
82395;BME280;72031;51.786;4.662;2024-01-10T10:55:17;103098.56;;;-1.06;53.75
82395;BME280;72031;51.786;4.662;2024-01-10T10:57:47;103095.09;;;-1.05;52.97
82395;BME280;72031;51.786;4.662;2024-01-10T11:00:18;103099.59;;;-0.95;53.57
82395;BME280;72031;51.786;4.662;2024-01-10T11:02:45;103108.50;;;-0.84;52.60
82395;BME280;72031;51.786;4.662;2024-01-10T11:05:12;103098.84;;;-0.85;53.63
82395;BME280;72031;51.786;4.662;2024-01-10T11:07:42;103105.91;;;-0.81;53.50
82395;BME280;72031;51.786;4.662;2024-01-10T11:10:18;103110.25;;;-0.83;53.38
82395;BME280;72031;51.786;4.662;2024-01-10T11:16:13;103102.72;;;-0.59;53.15
82395;BME280;72031;51.786;4.662;2024-01-10T11:24:14;103099.25;;;-0.54;53.52
82395;BME280;72031;51.786;4.662;2024-01-10T11:26:40;103095.91;;;-0.43;53.44
82395;BME280;72031;51.786;4.662;2024-01-10T11:29:06;103093.53;;;-0.24;52.55
82395;BME280;72031;51.786;4.662;2024-01-10T11:31:32;103089.19;;;-0.18;53.69
82395;BME280;72031;51.786;4.662;2024-01-10T11:34:02;103092.75;;;-0.13;53.26
82395;BME280;72031;51.786;4.662;2024-01-10T11:36:28;103086.75;;;-0.03;53.33
82395;BME280;72031;51.786;4.662;2024-01-10T11:38:59;103085.94;;;0.06;52.57
82395;BME280;72031;51.786;4.662;2024-01-10T11:41:32;103084.19;;;0.05;51.40
82395;BME280;72031;51.786;4.662;2024-01-10T11:46:50;103088.66;;;0.17;51.53
82395;BME280;72031;51.786;4.662;2024-01-10T11:49:18;103083.47;;;0.23;52.21
82395;BME280;72031;51.786;4.662;2024-01-10T11:51:57;103075.59;;;0.23;51.39
82395;BME280;72031;51.786;4.662;2024-01-10T11:54:43;103067.72;;;0.21;52.03
82395;BME280;72031;51.786;4.662;2024-01-10T11:57:18;103069.47;;;0.24;51.46
82395;BME280;72031;51.786;4.662;2024-01-10T11:59:44;103064.28;;;0.30;51.62
82395;BME280;72031;51.786;4.662;2024-01-10T12:02:11;103067.94;;;0.44;52.24
82395;BME280;72031;51.786;4.662;2024-01-10T12:04:38;103067.06;;;0.48;51.22
82395;BME280;72031;51.786;4.662;2024-01-10T12:07:04;103065.38;;;0.56;50.96
82395;BME280;72031;51.786;4.662;2024-01-10T12:09:31;103063.69;;;0.65;50.59
82395;BME280;72031;51.786;4.662;2024-01-10T12:11:57;103056.78;;;0.79;50.14
82395;BME280;72031;51.786;4.662;2024-01-10T12:14:25;103054.16;;;0.83;50.44
82395;BME280;72031;51.786;4.662;2024-01-10T12:16:51;103049.88;;;0.96;49.67
82395;BME280;72031;51.786;4.662;2024-01-10T12:19:18;103046.41;;;1.03;49.73
82395;BME280;72031;51.786;4.662;2024-01-10T12:21:43;103051.72;;;1.09;49.79
82395;BME280;72031;51.786;4.662;2024-01-10T12:24:09;103048.22;;;1.17;49.54
82395;BME280;72031;51.786;4.662;2024-01-10T12:26:35;103048.25;;;1.23;48.61
82395;BME280;72031;51.786;4.662;2024-01-10T12:29:01;103045.63;;;1.18;49.42
82395;BME280;72031;51.786;4.662;2024-01-10T12:31:30;103047.38;;;1.19;48.87
82395;BME280;72031;51.786;4.662;2024-01-10T12:33:59;103050.03;;;1.33;49.08
82395;BME280;72031;51.786;4.662;2024-01-10T12:36:24;103043.97;;;1.45;48.00
82395;BME280;72031;51.786;4.662;2024-01-10T12:38:51;103041.31;;;1.37;48.13
82395;BME280;72031;51.786;4.662;2024-01-10T12:41:18;103043.91;;;1.28;47.95
82395;BME280;72031;51.786;4.662;2024-01-10T12:43:49;103035.13;;;1.30;47.83
82395;BME280;72031;51.786;4.662;2024-01-10T12:46:15;103037.78;;;1.32;47.21
82395;BME280;72031;51.786;4.662;2024-01-10T12:48:42;103034.25;;;1.33;47.18
82395;BME280;72031;51.786;4.662;2024-01-10T12:51:08;103031.66;;;1.37;46.48
82395;BME280;72031;51.786;4.662;2024-01-10T12:53:35;103034.25;;;1.27;47.38
82395;BME280;72031;51.786;4.662;2024-01-10T12:56:02;103030.75;;;1.31;47.46
82395;BME280;72031;51.786;4.662;2024-01-10T12:58:29;103037.75;;;1.26;47.29
82395;BME280;72031;51.786;4.662;2024-01-10T13:00:55;103034.25;;;1.28;47.57
82395;BME280;72031;51.786;4.662;2024-01-10T13:03:21;103036.00;;;1.34;47.01
82395;BME280;72031;51.786;4.662;2024-01-10T13:05:47;103027.28;;;1.39;47.40